sensor_id;sensor_type;location;lat;lon;timestamp;P1;durP1;ratioP1;P2;durP2;ratioP2
42030;SDS011;27709;52.036;5.906;2023-12-07T00:01:18;18.48;;;10.40;;
42030;SDS011;27709;52.036;5.906;2023-12-07T00:03:44;15.93;;;9.43;;
42030;SDS011;27709;52.036;5.906;2023-12-07T00:06:09;19.30;;;10.02;;
42030;SDS011;27709;52.036;5.906;2023-12-07T00:08:35;15.85;;;9.63;;
42030;SDS011;27709;52.036;5.906;2023-12-07T00:11:00;15.63;;;9.70;;
42030;SDS011;27709;52.036;5.906;2023-12-07T00:13:26;17.23;;;9.98;;
42030;SDS011;27709;52.036;5.906;2023-12-07T00:15:52;17.45;;;9.90;;
42030;SDS011;27709;52.036;5.906;2023-12-07T00:18:17;20.80;;;10.88;;
42030;SDS011;27709;52.036;5.906;2023-12-07T00:20:44;19.50;;;10.68;;
42030;SDS011;27709;52.036;5.906;2023-12-07T00:23:10;18.30;;;10.65;;
42030;SDS011;27709;52.036;5.906;2023-12-07T00:25:35;18.27;;;10.27;;
42030;SDS011;27709;52.036;5.906;2023-12-07T00:28:01;21.05;;;10.68;;
42030;SDS011;27709;52.036;5.906;2023-12-07T00:30:28;20.85;;;10.77;;
42030;SDS011;27709;52.036;5.906;2023-12-07T00:32:53;19.67;;;11.23;;
42030;SDS011;27709;52.036;5.906;2023-12-07T00:35:19;19.05;;;11.68;;
42030;SDS011;27709;52.036;5.906;2023-12-07T00:37:47;21.52;;;11.82;;
42030;SDS011;27709;52.036;5.906;2023-12-07T00:40:13;20.25;;;11.65;;
42030;SDS011;27709;52.036;5.906;2023-12-07T00:42:39;18.90;;;11.35;;
42030;SDS011;27709;52.036;5.906;2023-12-07T00:45:05;21.77;;;11.82;;
42030;SDS011;27709;52.036;5.906;2023-12-07T00:47:32;25.38;;;12.65;;
42030;SDS011;27709;52.036;5.906;2023-12-07T00:49:57;20.95;;;11.88;;
42030;SDS011;27709;52.036;5.906;2023-12-07T00:52:23;19.90;;;11.23;;
42030;SDS011;27709;52.036;5.906;2023-12-07T00:54:48;23.05;;;11.35;;
42030;SDS011;27709;52.036;5.906;2023-12-07T00:57:14;19.60;;;11.15;;
42030;SDS011;27709;52.036;5.906;2023-12-07T00:59:39;18.83;;;11.32;;
42030;SDS011;27709;52.036;5.906;2023-12-07T01:02:05;21.60;;;11.02;;
42030;SDS011;27709;52.036;5.906;2023-12-07T01:04:31;18.33;;;11.32;;
42030;SDS011;27709;52.036;5.906;2023-12-07T01:06:57;23.77;;;12.43;;
42030;SDS011;27709;52.036;5.906;2023-12-07T01:09:23;22.08;;;11.98;;
42030;SDS011;27709;52.036;5.906;2023-12-07T01:11:49;21.27;;;11.98;;
42030;SDS011;27709;52.036;5.906;2023-12-07T01:14:15;22.05;;;11.30;;
42030;SDS011;27709;52.036;5.906;2023-12-07T01:16:41;22.83;;;11.93;;
42030;SDS011;27709;52.036;5.906;2023-12-07T01:19:07;21.92;;;11.68;;
42030;SDS011;27709;52.036;5.906;2023-12-07T01:21:33;20.65;;;11.38;;
42030;SDS011;27709;52.036;5.906;2023-12-07T01:23:59;20.48;;;11.20;;
42030;SDS011;27709;52.036;5.906;2023-12-07T01:26:24;22.45;;;11.73;;
42030;SDS011;27709;52.036;5.906;2023-12-07T01:28:50;20.83;;;12.02;;
42030;SDS011;27709;52.036;5.906;2023-12-07T01:31:16;21.20;;;11.40;;
42030;SDS011;27709;52.036;5.906;2023-12-07T01:33:42;21.67;;;11.93;;
42030;SDS011;27709;52.036;5.906;2023-12-07T01:36:08;19.40;;;11.15;;
42030;SDS011;27709;52.036;5.906;2023-12-07T01:38:33;21.15;;;11.90;;
42030;SDS011;27709;52.036;5.906;2023-12-07T01:40:59;19.85;;;11.43;;
42030;SDS011;27709;52.036;5.906;2023-12-07T01:43:25;21.85;;;12.18;;
42030;SDS011;27709;52.036;5.906;2023-12-07T01:45:50;21.60;;;11.30;;
42030;SDS011;27709;52.036;5.906;2023-12-07T01:48:19;22.10;;;11.80;;
42030;SDS011;27709;52.036;5.906;2023-12-07T01:50:45;21.52;;;11.55;;
42030;SDS011;27709;52.036;5.906;2023-12-07T01:53:12;21.10;;;11.68;;
42030;SDS011;27709;52.036;5.906;2023-12-07T01:55:38;19.58;;;11.70;;
42030;SDS011;27709;52.036;5.906;2023-12-07T01:58:05;18.73;;;10.93;;
42030;SDS011;27709;52.036;5.906;2023-12-07T02:00:32;20.88;;;11.90;;
42030;SDS011;27709;52.036;5.906;2023-12-07T02:02:59;18.50;;;11.57;;
42030;SDS011;27709;52.036;5.906;2023-12-07T02:05:28;22.98;;;11.57;;
42030;SDS011;27709;52.036;5.906;2023-12-07T02:07:54;22.48;;;11.70;;
42030;SDS011;27709;52.036;5.906;2023-12-07T02:10:20;20.50;;;12.40;;
42030;SDS011;27709;52.036;5.906;2023-12-07T02:12:46;20.73;;;12.30;;
42030;SDS011;27709;52.036;5.906;2023-12-07T02:15:12;20.45;;;11.65;;
42030;SDS011;27709;52.036;5.906;2023-12-07T02:18:02;22.10;;;11.98;;
42030;SDS011;27709;52.036;5.906;2023-12-07T02:23:07;19.73;;;11.15;;
42030;SDS011;27709;52.036;5.906;2023-12-07T02:25:36;20.30;;;11.95;;
42030;SDS011;27709;52.036;5.906;2023-12-07T02:28:11;20.35;;;11.60;;
42030;SDS011;27709;52.036;5.906;2023-12-07T02:30:37;22.48;;;11.52;;
42030;SDS011;27709;52.036;5.906;2023-12-07T02:33:03;20.13;;;11.48;;
42030;SDS011;27709;52.036;5.906;2023-12-07T02:35:30;19.92;;;10.57;;
42030;SDS011;27709;52.036;5.906;2023-12-07T02:37:56;20.25;;;11.02;;
42030;SDS011;27709;52.036;5.906;2023-12-07T02:40:23;23.00;;;12.23;;
42030;SDS011;27709;52.036;5.906;2023-12-07T02:42:51;19.58;;;11.13;;
42030;SDS011;27709;52.036;5.906;2023-12-07T02:45:17;20.02;;;11.30;;
42030;SDS011;27709;52.036;5.906;2023-12-07T02:47:43;20.52;;;11.95;;
42030;SDS011;27709;52.036;5.906;2023-12-07T02:50:10;21.90;;;11.77;;
42030;SDS011;27709;52.036;5.906;2023-12-07T02:52:37;22.25;;;11.73;;
42030;SDS011;27709;52.036;5.906;2023-12-07T02:55:03;21.48;;;11.55;;
42030;SDS011;27709;52.036;5.906;2023-12-07T02:57:29;20.15;;;11.93;;
42030;SDS011;27709;52.036;5.906;2023-12-07T02:59:55;20.08;;;11.90;;
42030;SDS011;27709;52.036;5.906;2023-12-07T03:02:21;21.17;;;12.05;;
42030;SDS011;27709;52.036;5.906;2023-12-07T03:04:47;23.95;;;11.98;;
42030;SDS011;27709;52.036;5.906;2023-12-07T03:07:13;22.65;;;12.60;;
42030;SDS011;27709;52.036;5.906;2023-12-07T03:09:39;21.48;;;12.50;;
42030;SDS011;27709;52.036;5.906;2023-12-07T03:12:04;22.48;;;11.77;;
42030;SDS011;27709;52.036;5.906;2023-12-07T03:14:31;21.23;;;13.05;;
42030;SDS011;27709;52.036;5.906;2023-12-07T03:16:56;24.02;;;12.00;;
42030;SDS011;27709;52.036;5.906;2023-12-07T03:19:22;19.70;;;11.98;;
42030;SDS011;27709;52.036;5.906;2023-12-07T03:21:48;21.05;;;12.18;;
42030;SDS011;27709;52.036;5.906;2023-12-07T03:24:13;25.05;;;12.75;;
42030;SDS011;27709;52.036;5.906;2023-12-07T03:26:39;23.98;;;13.23;;
42030;SDS011;27709;52.036;5.906;2023-12-07T03:29:04;19.92;;;12.25;;
42030;SDS011;27709;52.036;5.906;2023-12-07T03:31:30;20.38;;;11.82;;
42030;SDS011;27709;52.036;5.906;2023-12-07T03:33:56;18.25;;;11.23;;
42030;SDS011;27709;52.036;5.906;2023-12-07T03:36:22;20.80;;;11.23;;
42030;SDS011;27709;52.036;5.906;2023-12-07T03:38:48;22.08;;;11.57;;
42030;SDS011;27709;52.036;5.906;2023-12-07T03:41:14;22.20;;;12.52;;
42030;SDS011;27709;52.036;5.906;2023-12-07T03:43:40;22.85;;;12.40;;
42030;SDS011;27709;52.036;5.906;2023-12-07T03:46:06;21.27;;;12.00;;
42030;SDS011;27709;52.036;5.906;2023-12-07T03:48:33;22.48;;;12.48;;
42030;SDS011;27709;52.036;5.906;2023-12-07T03:50:59;21.35;;;12.80;;
42030;SDS011;27709;52.036;5.906;2023-12-07T03:53:25;23.83;;;12.05;;
42030;SDS011;27709;52.036;5.906;2023-12-07T03:55:52;22.33;;;11.90;;
42030;SDS011;27709;52.036;5.906;2023-12-07T03:58:18;23.33;;;11.60;;
42030;SDS011;27709;52.036;5.906;2023-12-07T04:00:44;23.42;;;11.75;;
42030;SDS011;27709;52.036;5.906;2023-12-07T04:03:10;24.88;;;13.23;;
42030;SDS011;27709;52.036;5.906;2023-12-07T04:05:35;23.15;;;13.43;;
42030;SDS011;27709;52.036;5.906;2023-12-07T04:08:02;22.02;;;12.80;;
42030;SDS011;27709;52.036;5.906;2023-12-07T04:10:30;23.08;;;12.60;;
42030;SDS011;27709;52.036;5.906;2023-12-07T04:12:55;19.83;;;12.07;;
42030;SDS011;27709;52.036;5.906;2023-12-07T04:15:21;22.98;;;12.15;;
42030;SDS011;27709;52.036;5.906;2023-12-07T04:17:48;21.88;;;12.88;;
42030;SDS011;27709;52.036;5.906;2023-12-07T04:20:13;22.23;;;12.52;;
42030;SDS011;27709;52.036;5.906;2023-12-07T04:22:39;24.13;;;12.50;;
42030;SDS011;27709;52.036;5.906;2023-12-07T04:25:05;20.35;;;11.75;;
42030;SDS011;27709;52.036;5.906;2023-12-07T04:27:32;21.02;;;12.10;;
42030;SDS011;27709;52.036;5.906;2023-12-07T04:29:58;21.42;;;12.55;;
42030;SDS011;27709;52.036;5.906;2023-12-07T04:32:23;20.27;;;12.05;;
42030;SDS011;27709;52.036;5.906;2023-12-07T04:34:49;24.65;;;13.18;;
42030;SDS011;27709;52.036;5.906;2023-12-07T04:37:15;20.13;;;11.35;;
42030;SDS011;27709;52.036;5.906;2023-12-07T04:39:40;20.08;;;11.45;;
42030;SDS011;27709;52.036;5.906;2023-12-07T04:42:06;21.63;;;11.80;;
42030;SDS011;27709;52.036;5.906;2023-12-07T04:44:32;20.95;;;12.52;;
42030;SDS011;27709;52.036;5.906;2023-12-07T04:46:57;20.67;;;11.43;;
42030;SDS011;27709;52.036;5.906;2023-12-07T04:49:23;19.38;;;11.45;;
42030;SDS011;27709;52.036;5.906;2023-12-07T04:51:48;21.83;;;12.27;;
42030;SDS011;27709;52.036;5.906;2023-12-07T04:54:14;20.33;;;11.55;;
42030;SDS011;27709;52.036;5.906;2023-12-07T04:56:42;18.75;;;10.75;;
42030;SDS011;27709;52.036;5.906;2023-12-07T04:59:09;19.85;;;11.20;;
42030;SDS011;27709;52.036;5.906;2023-12-07T05:01:35;19.08;;;11.15;;
42030;SDS011;27709;52.036;5.906;2023-12-07T05:04:01;21.55;;;12.02;;
42030;SDS011;27709;52.036;5.906;2023-12-07T05:06:28;21.85;;;11.68;;
42030;SDS011;27709;52.036;5.906;2023-12-07T05:08:54;20.90;;;12.00;;
42030;SDS011;27709;52.036;5.906;2023-12-07T05:11:20;22.95;;;12.32;;
42030;SDS011;27709;52.036;5.906;2023-12-07T05:13:45;27.75;;;13.30;;
42030;SDS011;27709;52.036;5.906;2023-12-07T05:16:13;27.02;;;13.18;;
42030;SDS011;27709;52.036;5.906;2023-12-07T05:18:38;26.67;;;13.80;;
42030;SDS011;27709;52.036;5.906;2023-12-07T05:21:04;34.53;;;14.32;;
42030;SDS011;27709;52.036;5.906;2023-12-07T05:23:30;31.83;;;14.02;;
42030;SDS011;27709;52.036;5.906;2023-12-07T05:25:56;31.90;;;14.60;;
42030;SDS011;27709;52.036;5.906;2023-12-07T05:28:21;32.20;;;14.38;;
42030;SDS011;27709;52.036;5.906;2023-12-07T05:30:47;40.95;;;15.98;;
42030;SDS011;27709;52.036;5.906;2023-12-07T05:33:13;44.50;;;16.33;;
42030;SDS011;27709;52.036;5.906;2023-12-07T05:35:39;44.13;;;15.52;;
42030;SDS011;27709;52.036;5.906;2023-12-07T05:38:05;39.45;;;15.27;;
42030;SDS011;27709;52.036;5.906;2023-12-07T05:40:30;45.50;;;16.67;;
42030;SDS011;27709;52.036;5.906;2023-12-07T05:42:56;45.63;;;17.40;;
42030;SDS011;27709;52.036;5.906;2023-12-07T05:45:22;39.88;;;16.98;;
42030;SDS011;27709;52.036;5.906;2023-12-07T05:47:48;46.17;;;17.05;;
42030;SDS011;27709;52.036;5.906;2023-12-07T05:50:13;40.60;;;18.17;;
42030;SDS011;27709;52.036;5.906;2023-12-07T05:52:39;45.72;;;17.35;;
42030;SDS011;27709;52.036;5.906;2023-12-07T05:55:05;39.40;;;18.30;;
42030;SDS011;27709;52.036;5.906;2023-12-07T05:57:31;48.28;;;19.73;;
42030;SDS011;27709;52.036;5.906;2023-12-07T05:59:56;45.17;;;18.48;;
42030;SDS011;27709;52.036;5.906;2023-12-07T06:02:22;42.90;;;19.67;;
42030;SDS011;27709;52.036;5.906;2023-12-07T06:04:47;49.30;;;18.73;;
42030;SDS011;27709;52.036;5.906;2023-12-07T06:07:13;40.30;;;19.30;;
42030;SDS011;27709;52.036;5.906;2023-12-07T06:09:38;44.83;;;19.10;;
42030;SDS011;27709;52.036;5.906;2023-12-07T06:12:06;43.97;;;19.02;;
42030;SDS011;27709;52.036;5.906;2023-12-07T06:14:32;45.20;;;19.15;;
42030;SDS011;27709;52.036;5.906;2023-12-07T06:16:57;39.60;;;17.50;;
42030;SDS011;27709;52.036;5.906;2023-12-07T06:19:24;37.80;;;17.98;;
42030;SDS011;27709;52.036;5.906;2023-12-07T06:21:50;45.42;;;18.55;;
42030;SDS011;27709;52.036;5.906;2023-12-07T06:24:15;44.38;;;18.92;;
42030;SDS011;27709;52.036;5.906;2023-12-07T06:26:41;40.15;;;18.33;;
42030;SDS011;27709;52.036;5.906;2023-12-07T06:29:06;41.92;;;18.30;;
42030;SDS011;27709;52.036;5.906;2023-12-07T06:31:32;36.67;;;17.90;;
42030;SDS011;27709;52.036;5.906;2023-12-07T06:33:58;40.78;;;18.40;;
42030;SDS011;27709;52.036;5.906;2023-12-07T06:36:25;38.47;;;18.35;;
42030;SDS011;27709;52.036;5.906;2023-12-07T06:38:52;43.88;;;18.63;;
42030;SDS011;27709;52.036;5.906;2023-12-07T06:41:18;42.00;;;18.50;;
42030;SDS011;27709;52.036;5.906;2023-12-07T06:43:44;41.17;;;18.88;;
42030;SDS011;27709;52.036;5.906;2023-12-07T06:46:12;36.88;;;18.20;;
42030;SDS011;27709;52.036;5.906;2023-12-07T06:48:39;36.13;;;18.13;;
42030;SDS011;27709;52.036;5.906;2023-12-07T06:51:06;38.13;;;17.45;;
42030;SDS011;27709;52.036;5.906;2023-12-07T06:53:31;35.95;;;17.80;;
42030;SDS011;27709;52.036;5.906;2023-12-07T06:55:57;36.97;;;18.02;;
42030;SDS011;27709;52.036;5.906;2023-12-07T06:58:23;63.15;;;20.05;;
42030;SDS011;27709;52.036;5.906;2023-12-07T07:00:49;38.25;;;18.17;;
42030;SDS011;27709;52.036;5.906;2023-12-07T07:03:15;33.40;;;17.75;;
42030;SDS011;27709;52.036;5.906;2023-12-07T07:05:40;32.28;;;17.25;;
42030;SDS011;27709;52.036;5.906;2023-12-07T07:08:06;34.22;;;18.05;;
42030;SDS011;27709;52.036;5.906;2023-12-07T07:10:34;37.65;;;17.95;;
42030;SDS011;27709;52.036;5.906;2023-12-07T07:13:01;38.60;;;17.70;;
42030;SDS011;27709;52.036;5.906;2023-12-07T07:15:33;43.47;;;17.67;;
42030;SDS011;27709;52.036;5.906;2023-12-07T07:17:58;37.20;;;18.13;;
42030;SDS011;27709;52.036;5.906;2023-12-07T07:20:24;40.55;;;18.20;;
42030;SDS011;27709;52.036;5.906;2023-12-07T07:22:50;39.95;;;17.45;;
42030;SDS011;27709;52.036;5.906;2023-12-07T07:25:16;39.25;;;17.35;;
42030;SDS011;27709;52.036;5.906;2023-12-07T07:27:44;31.85;;;16.65;;
42030;SDS011;27709;52.036;5.906;2023-12-07T07:30:10;30.85;;;17.35;;
42030;SDS011;27709;52.036;5.906;2023-12-07T07:32:36;53.58;;;19.88;;
42030;SDS011;27709;52.036;5.906;2023-12-07T07:35:02;37.53;;;18.20;;
42030;SDS011;27709;52.036;5.906;2023-12-07T07:37:28;35.15;;;17.80;;
42030;SDS011;27709;52.036;5.906;2023-12-07T07:39:53;38.00;;;18.60;;
42030;SDS011;27709;52.036;5.906;2023-12-07T07:42:19;33.95;;;17.88;;
42030;SDS011;27709;52.036;5.906;2023-12-07T07:44:45;41.20;;;19.40;;
42030;SDS011;27709;52.036;5.906;2023-12-07T07:47:11;39.75;;;18.25;;
42030;SDS011;27709;52.036;5.906;2023-12-07T07:49:40;35.08;;;17.80;;
42030;SDS011;27709;52.036;5.906;2023-12-07T07:52:06;30.27;;;17.42;;
42030;SDS011;27709;52.036;5.906;2023-12-07T07:54:33;33.95;;;18.33;;
42030;SDS011;27709;52.036;5.906;2023-12-07T07:57:00;34.80;;;18.42;;
42030;SDS011;27709;52.036;5.906;2023-12-07T07:59:27;31.20;;;17.42;;
42030;SDS011;27709;52.036;5.906;2023-12-07T08:01:52;29.20;;;17.00;;
42030;SDS011;27709;52.036;5.906;2023-12-07T08:04:18;28.75;;;16.92;;
42030;SDS011;27709;52.036;5.906;2023-12-07T08:06:43;28.10;;;16.38;;
42030;SDS011;27709;52.036;5.906;2023-12-07T08:09:10;37.63;;;17.58;;
42030;SDS011;27709;52.036;5.906;2023-12-07T08:11:36;30.58;;;16.63;;
42030;SDS011;27709;52.036;5.906;2023-12-07T08:14:02;31.00;;;17.90;;
42030;SDS011;27709;52.036;5.906;2023-12-07T08:16:27;67.15;;;18.90;;
42030;SDS011;27709;52.036;5.906;2023-12-07T08:18:53;29.20;;;15.80;;
42030;SDS011;27709;52.036;5.906;2023-12-07T08:21:22;31.83;;;16.83;;
42030;SDS011;27709;52.036;5.906;2023-12-07T08:23:48;63.40;;;21.63;;
42030;SDS011;27709;52.036;5.906;2023-12-07T08:26:14;31.13;;;17.15;;
42030;SDS011;27709;52.036;5.906;2023-12-07T08:28:41;32.20;;;17.08;;
42030;SDS011;27709;52.036;5.906;2023-12-07T08:31:06;31.30;;;17.02;;
42030;SDS011;27709;52.036;5.906;2023-12-07T08:33:32;38.58;;;18.25;;
42030;SDS011;27709;52.036;5.906;2023-12-07T08:36:01;35.38;;;18.35;;
42030;SDS011;27709;52.036;5.906;2023-12-07T08:38:29;27.30;;;16.67;;
42030;SDS011;27709;52.036;5.906;2023-12-07T08:40:54;36.33;;;17.88;;
42030;SDS011;27709;52.036;5.906;2023-12-07T08:43:21;50.90;;;18.55;;
42030;SDS011;27709;52.036;5.906;2023-12-07T08:45:50;36.30;;;17.38;;
42030;SDS011;27709;52.036;5.906;2023-12-07T08:48:16;35.63;;;18.65;;
42030;SDS011;27709;52.036;5.906;2023-12-07T08:50:41;36.08;;;18.20;;
42030;SDS011;27709;52.036;5.906;2023-12-07T08:53:07;59.97;;;21.70;;
42030;SDS011;27709;52.036;5.906;2023-12-07T08:55:35;35.30;;;19.10;;
42030;SDS011;27709;52.036;5.906;2023-12-07T08:58:01;36.80;;;18.40;;
42030;SDS011;27709;52.036;5.906;2023-12-07T09:00:29;38.80;;;19.67;;
42030;SDS011;27709;52.036;5.906;2023-12-07T09:02:57;34.30;;;18.05;;
42030;SDS011;27709;52.036;5.906;2023-12-07T09:05:23;43.25;;;18.40;;
42030;SDS011;27709;52.036;5.906;2023-12-07T09:07:50;44.47;;;20.55;;
42030;SDS011;27709;52.036;5.906;2023-12-07T09:10:17;42.13;;;18.63;;
42030;SDS011;27709;52.036;5.906;2023-12-07T09:12:43;36.72;;;19.02;;
42030;SDS011;27709;52.036;5.906;2023-12-07T09:15:09;88.13;;;21.52;;
42030;SDS011;27709;52.036;5.906;2023-12-07T09:17:35;39.13;;;17.60;;
42030;SDS011;27709;52.036;5.906;2023-12-07T09:20:03;34.65;;;18.33;;
42030;SDS011;27709;52.036;5.906;2023-12-07T09:22:30;41.55;;;18.73;;
42030;SDS011;27709;52.036;5.906;2023-12-07T09:24:55;52.72;;;20.30;;
42030;SDS011;27709;52.036;5.906;2023-12-07T09:27:21;72.00;;;20.02;;
42030;SDS011;27709;52.036;5.906;2023-12-07T09:29:48;58.83;;;18.92;;
42030;SDS011;27709;52.036;5.906;2023-12-07T09:32:13;39.83;;;17.08;;
42030;SDS011;27709;52.036;5.906;2023-12-07T09:34:39;33.08;;;17.05;;
42030;SDS011;27709;52.036;5.906;2023-12-07T09:37:14;37.72;;;17.65;;
42030;SDS011;27709;52.036;5.906;2023-12-07T09:39:39;45.08;;;20.33;;
42030;SDS011;27709;52.036;5.906;2023-12-07T09:42:05;62.97;;;20.40;;
42030;SDS011;27709;52.036;5.906;2023-12-07T09:44:31;47.13;;;19.23;;
42030;SDS011;27709;52.036;5.906;2023-12-07T09:46:56;38.28;;;17.55;;
42030;SDS011;27709;52.036;5.906;2023-12-07T09:49:22;81.03;;;21.80;;
42030;SDS011;27709;52.036;5.906;2023-12-07T09:51:47;38.85;;;17.80;;
42030;SDS011;27709;52.036;5.906;2023-12-07T09:54:15;74.00;;;19.27;;
42030;SDS011;27709;52.036;5.906;2023-12-07T09:56:42;33.88;;;16.13;;
42030;SDS011;27709;52.036;5.906;2023-12-07T09:59:08;30.77;;;14.95;;
42030;SDS011;27709;52.036;5.906;2023-12-07T10:01:34;56.45;;;16.05;;
42030;SDS011;27709;52.036;5.906;2023-12-07T10:04:20;24.73;;;12.75;;
42030;SDS011;27709;52.036;5.906;2023-12-07T10:06:51;28.90;;;13.73;;
42030;SDS011;27709;52.036;5.906;2023-12-07T10:09:17;23.73;;;12.73;;
42030;SDS011;27709;52.036;5.906;2023-12-07T10:11:46;70.90;;;17.00;;
42030;SDS011;27709;52.036;5.906;2023-12-07T10:14:12;25.52;;;12.95;;
42030;SDS011;27709;52.036;5.906;2023-12-07T10:16:39;26.75;;;13.65;;
42030;SDS011;27709;52.036;5.906;2023-12-07T10:19:20;26.75;;;13.13;;
42030;SDS011;27709;52.036;5.906;2023-12-07T10:21:50;23.80;;;11.93;;
42030;SDS011;27709;52.036;5.906;2023-12-07T10:24:20;26.40;;;12.75;;
42030;SDS011;27709;52.036;5.906;2023-12-07T10:26:48;31.80;;;12.63;;
42030;SDS011;27709;52.036;5.906;2023-12-07T10:29:16;23.98;;;11.52;;
42030;SDS011;27709;52.036;5.906;2023-12-07T10:31:43;26.23;;;12.75;;
42030;SDS011;27709;52.036;5.906;2023-12-07T10:34:09;23.83;;;11.27;;
42030;SDS011;27709;52.036;5.906;2023-12-07T10:36:34;23.10;;;11.45;;
42030;SDS011;27709;52.036;5.906;2023-12-07T10:39:00;25.02;;;11.55;;
42030;SDS011;27709;52.036;5.906;2023-12-07T10:41:26;22.08;;;10.55;;
42030;SDS011;27709;52.036;5.906;2023-12-07T10:44:01;25.02;;;10.57;;
42030;SDS011;27709;52.036;5.906;2023-12-07T10:46:32;23.25;;;10.60;;
42030;SDS011;27709;52.036;5.906;2023-12-07T10:49:06;23.45;;;10.75;;
42030;SDS011;27709;52.036;5.906;2023-12-07T10:51:44;22.00;;;10.33;;
42030;SDS011;27709;52.036;5.906;2023-12-07T10:54:15;20.95;;;9.90;;
42030;SDS011;27709;52.036;5.906;2023-12-07T10:56:43;22.95;;;10.60;;
42030;SDS011;27709;52.036;5.906;2023-12-07T10:59:10;23.13;;;10.30;;
42030;SDS011;27709;52.036;5.906;2023-12-07T11:01:40;38.13;;;11.95;;
42030;SDS011;27709;52.036;5.906;2023-12-07T11:04:07;23.17;;;10.30;;
42030;SDS011;27709;52.036;5.906;2023-12-07T11:06:37;34.17;;;11.65;;
42030;SDS011;27709;52.036;5.906;2023-12-07T11:09:08;23.92;;;10.98;;
42030;SDS011;27709;52.036;5.906;2023-12-07T11:14:10;25.85;;;10.43;;
42030;SDS011;27709;52.036;5.906;2023-12-07T11:16:37;34.05;;;12.95;;
42030;SDS011;27709;52.036;5.906;2023-12-07T11:21:57;35.85;;;12.95;;
42030;SDS011;27709;52.036;5.906;2023-12-07T11:24:26;29.88;;;13.20;;
42030;SDS011;27709;52.036;5.906;2023-12-07T11:26:51;38.25;;;14.10;;
42030;SDS011;27709;52.036;5.906;2023-12-07T11:29:21;35.58;;;13.82;;
42030;SDS011;27709;52.036;5.906;2023-12-07T11:31:48;38.70;;;14.88;;
42030;SDS011;27709;52.036;5.906;2023-12-07T11:34:33;32.10;;;13.60;;
42030;SDS011;27709;52.036;5.906;2023-12-07T11:37:03;35.58;;;14.48;;
42030;SDS011;27709;52.036;5.906;2023-12-07T11:39:29;38.40;;;15.27;;
42030;SDS011;27709;52.036;5.906;2023-12-07T11:42:01;34.70;;;13.32;;
42030;SDS011;27709;52.036;5.906;2023-12-07T11:44:33;39.28;;;15.32;;
42030;SDS011;27709;52.036;5.906;2023-12-07T11:46:59;48.05;;;17.27;;
42030;SDS011;27709;52.036;5.906;2023-12-07T11:49:26;41.80;;;15.50;;
42030;SDS011;27709;52.036;5.906;2023-12-07T11:51:53;38.03;;;15.05;;
42030;SDS011;27709;52.036;5.906;2023-12-07T11:54:19;42.22;;;16.23;;
42030;SDS011;27709;52.036;5.906;2023-12-07T11:56:51;41.45;;;15.35;;
42030;SDS011;27709;52.036;5.906;2023-12-07T11:59:20;49.80;;;18.50;;
42030;SDS011;27709;52.036;5.906;2023-12-07T12:01:48;49.55;;;18.33;;
42030;SDS011;27709;52.036;5.906;2023-12-07T12:04:17;43.80;;;16.65;;
42030;SDS011;27709;52.036;5.906;2023-12-07T12:06:43;46.25;;;17.80;;
42030;SDS011;27709;52.036;5.906;2023-12-07T12:09:12;50.70;;;18.38;;
42030;SDS011;27709;52.036;5.906;2023-12-07T12:11:40;50.58;;;18.27;;
42030;SDS011;27709;52.036;5.906;2023-12-07T12:16:38;49.60;;;17.92;;
42030;SDS011;27709;52.036;5.906;2023-12-07T12:19:04;51.85;;;19.73;;
42030;SDS011;27709;52.036;5.906;2023-12-07T12:21:33;52.15;;;19.70;;
42030;SDS011;27709;52.036;5.906;2023-12-07T12:23:59;54.80;;;20.55;;
42030;SDS011;27709;52.036;5.906;2023-12-07T12:26:25;50.30;;;19.58;;
42030;SDS011;27709;52.036;5.906;2023-12-07T12:28:50;52.35;;;19.63;;
42030;SDS011;27709;52.036;5.906;2023-12-07T12:31:17;54.38;;;21.55;;
42030;SDS011;27709;52.036;5.906;2023-12-07T12:33:43;56.05;;;21.63;;
42030;SDS011;27709;52.036;5.906;2023-12-07T12:36:09;60.30;;;22.83;;
42030;SDS011;27709;52.036;5.906;2023-12-07T12:38:36;50.58;;;20.73;;
42030;SDS011;27709;52.036;5.906;2023-12-07T12:41:02;53.40;;;22.17;;
42030;SDS011;27709;52.036;5.906;2023-12-07T12:43:29;55.80;;;21.08;;
42030;SDS011;27709;52.036;5.906;2023-12-07T12:45:56;56.55;;;22.50;;
42030;SDS011;27709;52.036;5.906;2023-12-07T12:48:23;55.38;;;22.98;;
42030;SDS011;27709;52.036;5.906;2023-12-07T12:50:48;59.22;;;24.65;;
42030;SDS011;27709;52.036;5.906;2023-12-07T12:53:14;58.90;;;23.05;;
42030;SDS011;27709;52.036;5.906;2023-12-07T12:55:40;54.10;;;22.40;;
42030;SDS011;27709;52.036;5.906;2023-12-07T12:58:07;54.08;;;22.55;;
42030;SDS011;27709;52.036;5.906;2023-12-07T13:00:35;55.90;;;22.38;;
42030;SDS011;27709;52.036;5.906;2023-12-07T13:03:04;52.33;;;22.80;;
42030;SDS011;27709;52.036;5.906;2023-12-07T13:05:31;57.13;;;22.83;;
42030;SDS011;27709;52.036;5.906;2023-12-07T13:08:00;62.83;;;24.05;;
42030;SDS011;27709;52.036;5.906;2023-12-07T13:10:26;60.10;;;22.38;;
42030;SDS011;27709;52.036;5.906;2023-12-07T13:12:52;53.58;;;22.45;;
42030;SDS011;27709;52.036;5.906;2023-12-07T13:15:17;51.63;;;22.08;;
42030;SDS011;27709;52.036;5.906;2023-12-07T13:17:43;55.22;;;23.30;;
42030;SDS011;27709;52.036;5.906;2023-12-07T13:20:09;64.88;;;26.48;;
42030;SDS011;27709;52.036;5.906;2023-12-07T13:22:41;73.10;;;28.98;;
42030;SDS011;27709;52.036;5.906;2023-12-07T13:25:11;55.30;;;22.58;;
42030;SDS011;27709;52.036;5.906;2023-12-07T13:27:39;62.30;;;24.63;;
42030;SDS011;27709;52.036;5.906;2023-12-07T13:30:05;65.57;;;26.02;;
42030;SDS011;27709;52.036;5.906;2023-12-07T13:32:34;57.63;;;23.65;;
42030;SDS011;27709;52.036;5.906;2023-12-07T13:35:02;61.28;;;24.92;;
42030;SDS011;27709;52.036;5.906;2023-12-07T13:37:28;62.30;;;25.02;;
42030;SDS011;27709;52.036;5.906;2023-12-07T13:39:54;59.92;;;25.08;;
42030;SDS011;27709;52.036;5.906;2023-12-07T13:42:25;63.17;;;25.13;;
42030;SDS011;27709;52.036;5.906;2023-12-07T13:44:55;84.68;;;30.95;;
42030;SDS011;27709;52.036;5.906;2023-12-07T13:47:23;70.95;;;27.17;;
42030;SDS011;27709;52.036;5.906;2023-12-07T13:49:53;64.93;;;26.23;;
42030;SDS011;27709;52.036;5.906;2023-12-07T13:52:20;69.97;;;26.52;;
42030;SDS011;27709;52.036;5.906;2023-12-07T13:54:46;68.22;;;27.20;;
42030;SDS011;27709;52.036;5.906;2023-12-07T13:57:11;62.50;;;26.00;;
42030;SDS011;27709;52.036;5.906;2023-12-07T13:59:37;70.13;;;28.67;;
42030;SDS011;27709;52.036;5.906;2023-12-07T14:02:03;65.57;;;27.60;;
42030;SDS011;27709;52.036;5.906;2023-12-07T14:04:29;67.45;;;28.23;;
42030;SDS011;27709;52.036;5.906;2023-12-07T14:06:54;65.95;;;28.25;;
42030;SDS011;27709;52.036;5.906;2023-12-07T14:09:42;72.53;;;30.70;;
42030;SDS011;27709;52.036;5.906;2023-12-07T14:12:11;79.75;;;34.40;;
42030;SDS011;27709;52.036;5.906;2023-12-07T14:14:38;68.65;;;29.73;;
42030;SDS011;27709;52.036;5.906;2023-12-07T14:17:04;69.30;;;30.65;;
42030;SDS011;27709;52.036;5.906;2023-12-07T14:19:30;81.75;;;34.05;;
42030;SDS011;27709;52.036;5.906;2023-12-07T14:21:56;75.28;;;32.75;;
42030;SDS011;27709;52.036;5.906;2023-12-07T14:24:22;84.57;;;35.58;;
42030;SDS011;27709;52.036;5.906;2023-12-07T14:26:49;69.85;;;28.88;;
42030;SDS011;27709;52.036;5.906;2023-12-07T14:29:14;64.93;;;28.10;;